Flight Track Log - Related Links

Times and Time Zones

All times are in EDT time to prevent confusion due to time zone crossing. See the N70560 flight status page for this flight to view local times or setup timezone preferences in your user account.


Time Position Orientation Groundspeed Altitude Reporting Facility
EDT Latitude Longitude Course Direction KTS MPH feet Rate Location/Type
Mon 02:05:42 PM 32.7339 -93.2103 33° Northeast 94 108 3,200  Level Fort Worth Center
Mon 02:06:37 PM 32.7544 -93.1944 33° Northeast 96 110 3,700 494 Climbing Fort Worth Center
Mon 02:07:07 PM 32.7725 -93.1789 36° Northeast 94 108 3,900 467 Climbing Fort Worth Center
Mon 02:08:07 PM 32.7950 -93.1606 34° Northeast 94 108 4,400 500 Climbing Fort Worth Center
Mon 02:09:07 PM 32.8131 -93.1422 40° Northeast 115 132 4,900 500 Climbing Fort Worth Center
Mon 02:10:07 PM 32.8394 -93.1214 34° Northeast 110 127 5,400 500 Climbing Fort Worth Center
Mon 02:11:07 PM 32.8639 -93.1003 36° Northeast 104 120 5,900 500 Climbing Fort Worth Center
Mon 02:12:07 PM 32.8883 -93.0819 32° Northeast 104 120 6,400 500 Climbing Fort Worth Center
Mon 02:13:07 PM 32.9125 -93.0608 36° Northeast 104 120 6,900 500 Climbing Fort Worth Center
Mon 02:14:07 PM 32.9389 -93.0397 34° Northeast 104 120 7,400 450 Climbing Fort Worth Center
Mon 02:15:07 PM 32.9633 -93.0189 36° Northeast 104 120 7,800 350 Climbing Fort Worth Center
Mon 02:16:07 PM 32.9897 -92.9978 34° Northeast 104 120 8,100 400 Climbing Fort Worth Center
Mon 02:17:07 PM 33.0139 -92.9767 36° Northeast 104 120 8,600 450 Climbing Fort Worth Center
Mon 02:18:07 PM 33.0425 -92.9553 32° Northeast 109 125 9,000 250 Climbing Fort Worth Center
Mon 02:19:07 PM 33.0686 -92.9294 40° Northeast 109 125 9,100 50 Climbing Fort Worth Center
Mon 02:20:07 PM 33.0972 -92.9081 32° Northeast 114 131 9,100  Level Fort Worth Center
Mon 02:21:07 PM 33.1275 -92.8817 36° Northeast 124 143 9,100  Level Fort Worth Center
Mon 02:22:07 PM 33.1558 -92.8578 35° Northeast 124 143 9,100  Level Fort Worth Center
Mon 02:23:07 PM 33.1861 -92.8339 33° Northeast 124 143 9,100  Level Fort Worth Center
Mon 02:24:07 PM 33.2186 -92.8075 34° Northeast 124 143 9,100  Level Fort Worth Center
Mon 02:25:07 PM 33.2469 -92.7836 35° Northeast 124 143 9,100  Level Fort Worth Center
Mon 02:26:07 PM 33.2794 -92.7572 34° Northeast 124 143 9,100  Level Fort Worth Center
Mon 02:27:59 PM 33.3325 -92.7119 35° Northeast 128 147 9,100  Level Memphis Center
Mon 02:28:59 PM 33.3642 -92.6853 35° Northeast 128 147 9,100  Level Memphis Center
Mon 02:29:59 PM 33.3961 -92.6589 35° Northeast 128 147 9,100  Level Memphis Center
Mon 02:30:59 PM 33.4236 -92.6347 36° Northeast 128 147 9,100  Level Memphis Center
Mon 02:31:59 PM 33.4533 -92.6081 37° Northeast 128 147 9,100  Level Memphis Center
Mon 02:32:59 PM 33.4850 -92.5839 32° Northeast 128 147 9,100  Level Memphis Center
Mon 02:33:59 PM 33.5169 -92.5572 35° Northeast 128 147 9,100  Level Memphis Center
Mon 02:34:59 PM 33.5444 -92.5331 36° Northeast 128 147 9,100  Level Memphis Center
Mon 02:35:59 PM 33.5742 -92.5089 34° Northeast 128 147 9,100  Level Memphis Center
Mon 02:36:59 PM 33.6058 -92.4822 35° Northeast 128 147 9,100  Level Memphis Center
Mon 02:37:59 PM 33.6272 -92.4503 51° Northeast 128 147 9,100 50 Level Memphis Center
Mon 02:38:59 PM 33.6528 -92.4136 50° Northeast 128 147 9,200  Climbing Memphis Center
Mon 02:39:59 PM 33.6661 -92.3739 68° East 128 147 9,100  Descending Memphis Center
Mon 02:40:59 PM 33.6856 -92.3344 59° Northeast 128 147 9,200  Climbing Memphis Center
Mon 02:41:59 PM 33.6986 -92.2947 68° East 128 147 9,100  Descending Memphis Center
Mon 02:42:59 PM 33.7158 -92.2553 62° Northeast 128 147 9,200  Climbing Memphis Center
Mon 02:43:59 PM 33.7375 -92.2156 57° Northeast 134 154 9,100  Descending Memphis Center
Mon 02:44:59 PM 33.7422 -92.1683 83° East 134 154 9,200  Climbing Memphis Center
Mon 02:45:59 PM 33.7511 -92.1261 76° East 134 154 9,100 -50 Descending Memphis Center
Mon 02:46:59 PM 33.7603 -92.0786 77° East 129 148 9,100  Level Memphis Center
Mon 02:47:59 PM 33.7692 -92.0364 76° East 129 148 9,100 50 Level Memphis Center
Mon 02:48:59 PM 33.7883 -91.9967 60° Northeast 129 148 9,200  Climbing Memphis Center
Mon 02:49:59 PM 33.8036 -91.9597 64° Northeast 129 148 9,100 -50 Descending Memphis Center
Mon 02:50:59 PM 33.8186 -91.9172 67° East 129 148 9,100  Level Memphis Center
Mon 02:51:59 PM 33.8358 -91.8778 62° Northeast 129 148 9,100  Level Memphis Center
Mon 02:52:59 PM 33.8550 -91.8381 60° Northeast 129 148 9,100  Level Memphis Center
Mon 02:53:59 PM 33.8703 -91.8008 64° Northeast 129 148 9,100  Level Memphis Center
Mon 02:54:59 PM 33.8894 -91.7586 61° Northeast 129 148 9,100  Level Memphis Center
Mon 02:55:59 PM 33.9044 -91.7186 66° East 129 148 9,100  Level Memphis Center
Mon 02:56:59 PM 33.9194 -91.6789 66° East 129 148 9,100  Level Memphis Center
Mon 02:57:59 PM 33.9386 -91.6392 60° Northeast 129 148 9,100 50 Level Memphis Center
Mon 02:58:59 PM 33.9517 -91.6067 64° Northeast 135 155 9,200  Climbing Memphis Center
Mon 02:59:59 PM 33.9644 -91.5644 70° East 130 150 9,100 -50 Descending Memphis Center
Mon 03:00:59 PM 33.9858 -91.5194 60° Northeast 130 150 9,100  Level Memphis Center
Mon 03:01:59 PM 34.0028 -91.4822 61° Northeast 130 150 9,100 50 Level Memphis Center
Mon 03:02:59 PM 34.0158 -91.4422 68° East 130 150 9,200 50 Climbing Memphis Center
Mon 03:03:59 PM 34.0286 -91.3972 71° East 130 150 9,200 -50 Level Memphis Center
Mon 03:04:59 PM 34.0394 -91.3625 69° East 130 150 9,100 -50 Descending Memphis Center
Mon 03:05:59 PM 34.0481 -91.3122 78° East 130 150 9,100 50 Level Memphis Center
Mon 03:06:59 PM 34.0567 -91.2747 74° East 124 143 9,200 -50 Climbing Memphis Center
Mon 03:07:59 PM 34.0592 -91.2247 87° East 124 143 9,000 -100 Descending Memphis Center
Mon 03:08:59 PM 34.0678 -91.1847 75° East 124 143 9,000  Level Memphis Center
Mon 03:09:59 PM 34.0786 -91.1369 75° East 124 143 9,000  Level Memphis Center
Mon 03:10:59 PM 34.0831 -91.0894 84° East 124 143 9,000  Level Memphis Center
Mon 03:11:59 PM 34.0936 -91.0469 73° East 124 143 9,000  Level Memphis Center
Mon 03:12:59 PM 34.1022 -91.0044 76° East 124 143 9,000  Level Memphis Center
Mon 03:13:59 PM 34.1086 -90.9617 80° East 124 143 9,000  Level Memphis Center
Mon 03:14:59 PM 34.1172 -90.9192 76° East 124 143 9,000  Level Memphis Center
Mon 03:15:59 PM 34.1236 -90.8742 80° East 131 151 9,000  Level Memphis Center
Mon 03:16:59 PM 34.1322 -90.8289 77° East 126 145 9,000  Level Memphis Center
Mon 03:17:59 PM 34.1386 -90.7864 80° East 126 145 9,000  Level Memphis Center
Mon 03:18:59 PM 34.1450 -90.7461 79° East 126 145 9,000  Level Memphis Center
Mon 03:19:59 PM 34.1533 -90.7061 76° East 126 145 9,000  Level Memphis Center
Mon 03:20:59 PM 34.1597 -90.6583 81° East 135 155 9,000  Level Memphis Center
Mon 03:21:59 PM 34.1661 -90.6133 80° East 135 155 9,000  Level Memphis Center
Mon 03:22:59 PM 34.1767 -90.5731 72° East 123 142 9,000  Level Memphis Center
Mon 03:23:59 PM 34.1808 -90.5253 84° East 128 147 9,000  Level Memphis Center
Mon 03:24:59 PM 34.1894 -90.4853 75° East 123 142 9,000 50 Level Memphis Center
Mon 03:25:59 PM 34.1956 -90.4375 81° East 123 142 9,100 50 Climbing Memphis Center
Mon 03:26:59 PM 34.2039 -90.3922 77° East 129 148 9,100  Level Memphis Center
Mon 03:27:59 PM 34.2122 -90.3522 76° East 122 140 9,100  Level Memphis Center
Mon 03:28:59 PM 34.2186 -90.3069 80° East 122 140 9,100  Level Memphis Center
Mon 03:29:59 PM 34.2269 -90.2642 77° East 130 150 9,100  Level Memphis Center
Mon 03:30:59 PM 34.2331 -90.2214 80° East 121 139 9,100  Level Memphis Center
Mon 03:31:59 PM 34.2394 -90.1789 80° East 128 147 9,100  Level Memphis Center
Mon 03:32:59 PM 34.2456 -90.1336 81° East 128 147 9,100  Level Memphis Center
Mon 03:33:59 PM 34.2539 -90.0908 77° East 129 148 9,100  Level Memphis Center
Mon 03:34:59 PM 34.2600 -90.0481 80° East 129 148 9,100  Level Memphis Center
Mon 03:35:59 PM 34.2661 -90.0128 78° East 129 148 9,100  Level Memphis Center
Mon 03:36:59 PM 34.2744 -89.9700 77° East 129 148 9,100  Level Memphis Center
Mon 03:37:59 PM 34.2806 -89.9247 81° East 123 142 9,100  Level Memphis Center
Mon 03:38:59 PM 34.2886 -89.8819 77° East 123 142 9,100  Level Memphis Center
Mon 03:39:59 PM 34.2947 -89.8417 80° East 123 142 9,100  Level Memphis Center
Mon 03:40:59 PM 34.3008 -89.7964 81° East 123 142 9,100  Level Memphis Center
Mon 03:41:59 PM 34.3089 -89.7536 77° East 123 142 9,100  Level Memphis Center
Mon 03:42:59 PM 34.3150 -89.7108 80° East 123 142 9,100  Level Memphis Center
Mon 03:43:59 PM 34.3231 -89.6631 78° East 123 142 9,100  Level Memphis Center
Mon 03:44:59 PM 34.3311 -89.6203 77° East 123 142 9,100  Level Memphis Center
Mon 03:45:59 PM 34.3372 -89.5775 80° East 123 142 9,100  Level Memphis Center
Mon 03:46:59 PM 34.3431 -89.5319 81° East 123 142 9,100  Level Memphis Center
Mon 03:47:59 PM 34.3492 -89.4892 80° East 123 142 9,100  Level Memphis Center
Mon 03:48:59 PM 34.3592 -89.4464 74° East 123 142 9,100  Level Memphis Center
Mon 03:49:59 PM 34.3653 -89.4036 80° East 123 142 9,100  Level Memphis Center
Mon 03:50:59 PM 34.3731 -89.3606 78° East 123 142 9,100  Level Memphis Center
Mon 03:51:59 PM 34.3792 -89.3153 81° East 123 142 9,100  Level Memphis Center
Mon 03:52:59 PM 34.3850 -89.2750 80° East 123 142 9,100  Level Memphis Center
Mon 03:53:59 PM 34.3928 -89.2294 78° East 128 147 9,100  Level Memphis Center
Mon 03:54:59 PM 34.3989 -89.1917 79° East 128 147 9,100  Level Memphis Center
Mon 03:55:59 PM 34.4047 -89.1464 81° East 128 147 9,100  Level Memphis Center
Mon 03:56:59 PM 34.4147 -89.1008 75° East 123 142 9,100  Level Memphis Center
Mon 03:57:59 PM 34.4206 -89.0581 81° East 128 147 9,100  Level Memphis Center
Mon 03:58:59 PM 34.4261 -89.0150 81° East 128 147 9,100  Level Memphis Center
Mon 03:59:59 PM 34.4319 -88.9697 81° East 128 147 9,100  Level Memphis Center
Mon 04:00:59 PM 34.4400 -88.9267 77° East 128 147 9,100  Level Memphis Center
Mon 04:01:59 PM 34.4475 -88.8761 80° East 128 147 9,100  Level Memphis Center
Mon 04:02:59 PM 34.4556 -88.8308 78° East 128 147 9,100 -50 Level Memphis Center
Mon 04:03:59 PM 34.4633 -88.7903 77° East 123 142 9,000 -50 Descending Memphis Center
Mon 04:04:59 PM 34.4669 -88.7450 84° East 123 142 9,000  Level Memphis Center
Mon 04:05:59 PM 34.4767 -88.6994 75° East 123 142 9,000  Level Memphis Center
Mon 04:06:59 PM 34.4825 -88.6564 81° East 123 142 9,000  Level Memphis Center
Mon 04:07:59 PM 34.4900 -88.6108 79° East 123 142 9,000  Level Memphis Center
Mon 04:08:59 PM 34.4956 -88.5653 82° East 123 142 9,000  Level Memphis Center
Mon 04:09:59 PM 34.5033 -88.5225 78° East 123 142 9,000  Level Memphis Center
Mon 04:10:59 PM 34.5089 -88.4794 81° East 123 142 9,000  Level Memphis Center
Mon 04:11:59 PM 34.5167 -88.4339 78° East 123 142 9,000  Level Memphis Center
Mon 04:12:59 PM 34.5222 -88.3908 81° East 123 142 9,000  Level Memphis Center
Mon 04:13:59 PM 34.5300 -88.3453 78° East 123 142 9,000  Level Memphis Center
Mon 04:14:59 PM 34.5353 -88.2997 82° East 123 142 9,000  Level Memphis Center
Mon 04:15:59 PM 34.5431 -88.2542 78° East 123 142 9,000  Level Memphis Center
Mon 04:16:59 PM 34.5483 -88.2086 82° East 128 147 9,000 50 Level Memphis Center
Mon 04:17:59 PM 34.5497 -88.1658 88° East 128 147 9,100 50 Climbing Memphis Center
Mon 04:18:59 PM 34.5531 -88.1203 85° East 128 147 9,100  Level Memphis Center
Mon 04:19:59 PM 34.5522 -88.0725 91° East 128 147 9,100  Level Memphis Center
Mon 04:20:59 PM 34.5536 -88.0269 88° East 128 147 9,100  Level Memphis Center
Mon 04:21:59 PM 34.5547 -87.9817 88° East 128 147 9,100  Level Memphis Center
Mon 04:22:59 PM 34.5581 -87.9361 85° East 128 147 9,100  Level Memphis Center
Mon 04:23:59 PM 34.5592 -87.8883 88° East 128 147 9,100  Level Memphis Center
Mon 04:24:59 PM 34.5603 -87.8428 88° East 133 153 9,100  Level Memphis Center
Mon 04:25:59 PM 34.5614 -87.7947 88° East 133 153 9,100  Level Memphis Center
Mon 04:26:59 PM 34.5625 -87.7494 88° East 138 159 9,100  Level Memphis Center
Mon 04:27:59 PM 34.5658 -87.7039 85° East 138 159 9,100  Level Memphis Center
Mon 04:28:59 PM 34.5647 -87.6561 92° East 138 159 9,100  Level Memphis Center
Mon 04:29:59 PM 34.5658 -87.6106 88° East 138 159 9,100  Level Memphis Center
Mon 04:30:59 PM 34.5669 -87.5628 88° East 138 159 9,100  Level Memphis Center
Mon 04:31:59 PM 34.5700 -87.5172 85° East 138 159 9,100  Level Memphis Center
Mon 04:32:59 PM 34.5711 -87.4692 88° East 138 159 9,100  Level Memphis Center
Mon 04:33:59 PM 34.5700 -87.4214 92° East 138 159 9,100  Level Memphis Center
Mon 04:34:59 PM 34.5728 -87.3733 86° East 138 159 9,100  Level Memphis Center
Mon 04:35:59 PM 34.5717 -87.3253 92° East 138 159 9,100  Level Memphis Center
Mon 04:36:59 PM 34.5725 -87.2775 89° East 138 159 9,100  Level Memphis Center
Mon 04:37:59 PM 34.5736 -87.2294 88° East 138 159 9,100  Level Memphis Center
Mon 04:38:59 PM 34.5744 -87.1842 89° East 138 159 9,100  Level Memphis Center
Mon 04:39:59 PM 34.5756 -87.1436 88° East 138 159 9,100  Level Memphis Center
Mon 04:40:59 PM 34.5761 -87.0881 89° East 143 165 9,100  Level Memphis Center
Mon 04:41:59 PM 34.5792 -87.0450 85° East 143 165 9,100  Level Memphis Center
Mon 04:42:59 PM 34.5778 -86.9972 92° East 143 165 9,100  Level Memphis Center
Mon 04:43:59 PM 34.5808 -86.9492 86° East 143 165 9,100  Level Memphis Center
Mon 04:44:59 PM 34.5794 -86.9039 92° East 143 165 9,100  Level Memphis Center
Mon 04:45:59 PM 34.5803 -86.8583 89° East 143 165 9,100  Level Memphis Center
Mon 04:47:00 PM 34.5806 -86.8118 90° East  Level FlightAware Approximate
Mon 04:54:00 PM 34.5823 -86.4917 90° East  Level FlightAware Approximate
Mon 04:55:00 PM 34.5825 -86.4460 90° East  Level FlightAware Approximate
Mon 04:56:00 PM 34.5827 -86.4003 90° East  Level FlightAware Approximate
Mon 04:57:00 PM 34.5828 -86.3545 90° East  Level FlightAware Approximate
Mon 04:58:00 PM 34.5830 -86.3088 90° East  Level FlightAware Approximate
Mon 04:59:00 PM 34.5831 -86.2631 90° East  Level FlightAware Approximate
Mon 04:59:09 PM 34.5906 -86.2442 90° East 127 146 9,100  Level Atlanta Center
Mon 05:00:00 PM 34.5831 -86.2173 90° East  Level FlightAware Approximate
Mon 05:00:09 PM 34.5933 -86.1986 86° East 127 146 9,100  Level Atlanta Center
Mon 05:01:00 PM 34.5832 -86.1716 90° East  Level FlightAware Approximate
Mon 05:01:09 PM 34.5942 -86.1508 89° East 127 146 9,100  Level Atlanta Center
Mon 05:02:00 PM 34.5833 -86.1259 90° East  Level FlightAware Approximate
Mon 05:02:09 PM 34.5931 -86.1028 92° East 127 146 9,100  Level Atlanta Center
Mon 05:03:09 PM 34.5917 -86.0575 92° East 133 153 9,100  Level Atlanta Center
Mon 05:04:09 PM 34.5944 -86.0094 86° East 133 153 9,100  Level Atlanta Center
Mon 05:05:09 PM 34.5953 -85.9642 89° East 138 159 9,100  Level Atlanta Center
Mon 05:06:09 PM 34.5939 -85.9161 92° East 138 159 9,100  Level Atlanta Center
Mon 05:07:09 PM 34.5947 -85.8708 89° East 138 159 9,100  Level Atlanta Center
Mon 05:08:09 PM 34.5956 -85.8153 89° East 145 167 9,100  Level Atlanta Center
Mon 05:09:09 PM 34.5961 -85.7750 89° East 140 161 9,100  Level Atlanta Center
Mon 05:10:09 PM 34.5967 -85.7269 89° East 140 161 9,100  Level Atlanta Center
Mon 05:11:09 PM 34.5972 -85.6789 89° East 140 161 9,100  Level Atlanta Center
Mon 05:12:09 PM 34.5978 -85.6336 89° East 140 161 9,100  Level Atlanta Center
Mon 05:13:09 PM 34.5986 -85.5881 89° East 135 155 9,100  Level Atlanta Center
Mon 05:14:09 PM 34.5992 -85.5428 89° East 135 155 9,100  Level Atlanta Center
Mon 05:15:09 PM 34.5975 -85.4947 92° East 135 155 9,100  Level Atlanta Center
Mon 05:16:09 PM 34.6003 -85.4494 86° East 140 161 9,100  Level Atlanta Center
Mon 05:17:09 PM 34.6006 -85.4014 90° East 140 161 9,100  Level Atlanta Center
Mon 05:18:09 PM 34.5992 -85.3536 92° East 140 161 9,100  Level Atlanta Center
Mon 05:19:09 PM 34.6017 -85.3106 86° East 140 161 9,100  Level Atlanta Center
Mon 05:20:09 PM 34.6000 -85.2628 92° East 140 161 9,100  Level Atlanta Center
Mon 05:21:09 PM 34.5983 -85.2172 93° East 140 161 9,100  Level Atlanta Center
Mon 05:24:09 PM 34.6017 -85.0786 88° East 230 265 9,100  Level Atlanta Center
Mon 05:25:09 PM 34.6022 -85.0356 89° East 167 192 9,100  Level Atlanta Center
Mon 05:26:09 PM 34.6025 -84.9878 90° East 138 159 9,100  Level Atlanta Center
Mon 05:27:09 PM 34.6028 -84.9397 90° East 138 159 9,100  Level Atlanta Center
Mon 05:28:09 PM 34.6011 -84.8967 93° East 138 159 9,100  Level Atlanta Center
Mon 05:29:09 PM 34.6014 -84.8489 90° East 138 159 9,100  Level Atlanta Center
Mon 05:30:09 PM 34.6039 -84.8033 86° East 138 159 9,100  Level Atlanta Center
Mon 05:31:09 PM 34.6019 -84.7556 93° East 138 159 9,100  Level Atlanta Center
Mon 05:32:09 PM 34.6022 -84.7125 90° East 138 159 9,100  Level Atlanta Center
Mon 05:33:09 PM 34.6025 -84.6672 90° East 143 165 9,100  Level Atlanta Center
Mon 05:34:09 PM 34.6006 -84.6217 93° East 138 159 9,100  Level Atlanta Center
Mon 05:35:09 PM 34.6008 -84.5764 90° East 133 153 9,100  Level Atlanta Center
Mon 05:36:09 PM 34.6011 -84.5308 90° East 133 153 9,100 50 Level Atlanta Center
Mon 05:37:09 PM 34.6011 -84.4856 90° East 133 153 9,200  Climbing Atlanta Center
Mon 05:38:09 PM 34.6014 -84.4425 90° East 139 160 9,100 -50 Descending Atlanta Center
Mon 05:39:09 PM 34.5994 -84.3997 93° East 139 160 9,100  Level Atlanta Center
Mon 05:40:09 PM 34.6017 -84.3517 87° East 139 160 9,100  Level Atlanta Center
Mon 05:41:09 PM 34.5994 -84.3089 94° East 139 160 9,100  Level Atlanta Center
Mon 05:42:09 PM 34.5997 -84.2633 90° East 139 160 9,100  Level Atlanta Center
Mon 05:43:09 PM 34.6019 -84.2181 87° East 139 160 9,100  Level Atlanta Center
Mon 05:44:09 PM 34.5997 -84.1675 93° East 139 160 9,100  Level Atlanta Center
Mon 05:45:09 PM 34.5978 -84.1247 93° East 134 154 9,100  Level Atlanta Center
Mon 05:46:09 PM 34.6000 -84.0817 86° East 129 148 9,100  Level Atlanta Center
Mon 05:47:09 PM 34.6000 -84.0389 90° East 129 148 9,100 -300 Level Atlanta Center
Mon 05:48:09 PM 34.5978 -83.9908 93° East 124 143 8,500 -650 Descending Atlanta Center
Mon 05:49:09 PM 34.5978 -83.9428 90° East 136 157 7,800 -650 Descending Atlanta Center
Mon 05:50:09 PM 34.5956 -83.8950 93° East 144 166 7,200 -600 Descending Atlanta Center
Mon 05:51:09 PM 34.5975 -83.8494 87° East 139 160 6,600 -500 Descending Atlanta Center
Mon 05:52:09 PM 34.5975 -83.8042 90° East 139 160 6,200 -550 Descending Atlanta Center
Mon 05:53:09 PM 34.5953 -83.7511 93° East 139 160 5,500 -600 Descending Atlanta Center
Mon 05:54:09 PM 34.5953 -83.7058 90° East 139 160 5,000 -250 Descending Atlanta Center
Mon 05:55:09 PM 34.5950 -83.6628 90° East 139 160 5,000  Level Atlanta Center
Mon 05:56:09 PM 34.5928 -83.6200 94° East 126 145 5,000  Level Atlanta Center
Mon 05:57:09 PM 34.5947 -83.5769 87° East 121 139 5,000  Level Atlanta Center

Login

Don't have an account? Register now (free) for customized features, flight alerts, and more!